Apollo Beach, Florida
Current Conditions -  °F | °C
As of 7:58 AM on Thursday 23 Oct 2014 (Local Time) from KMCF Reporting Station
Clear Clear  
Wind Chill: 62°   Ceiling: Unl
Heat Index: 62°   Visibility: 10mi
Dew Point: 59°   Wind: 12mph
Humidity: 90%   Direction: 70°ENE
Pressure: 29.98"   Gusts: NA
Location:  27.77°N, 82.39°W
Report Text: KMCF 231158Z AUTO 07010KT 10SM CLR 17/15 A2998 RMK AO2 SLP155 T01650148 10191 20165 52009
Loading
Personal Weather Stations






























Interactive Weather Map
Tropical Storm Tracking
New forecast layout! Learn more

10-Day Weather Forecast

Advertisements
Track Severe Weather on mobile